createdAt,value
2018-10-06T00:00:13.957Z,12.00
2018-10-06T00:02:42.800Z,11.80
2018-10-06T00:05:11.621Z,11.70
2018-10-06T00:07:40.413Z,11.60
2018-10-06T00:10:09.451Z,11.40
2018-10-06T00:12:39.190Z,11.10
2018-10-06T00:15:08.119Z,10.90
2018-10-06T00:17:36.911Z,10.90
2018-10-06T00:20:05.854Z,10.80
2018-10-06T00:22:34.673Z,10.80
2018-10-06T00:25:03.479Z,10.70
2018-10-06T00:27:32.256Z,10.70
2018-10-06T00:30:01.036Z,10.50
2018-10-06T00:32:29.862Z,10.60
2018-10-06T00:34:59.605Z,10.50
2018-10-06T00:37:28.449Z,10.40
2018-10-06T00:39:57.244Z,10.40
2018-10-06T00:42:26.122Z,10.30
2018-10-06T00:44:54.977Z,10.40
2018-10-06T00:47:23.826Z,10.40
2018-10-06T00:49:53.464Z,10.30
2018-10-06T00:52:22.244Z,10.40
2018-10-06T00:54:51.032Z,10.40
2018-10-06T00:57:19.779Z,10.40
2018-10-06T00:59:48.562Z,10.40
2018-10-06T01:02:18.346Z,10.30
2018-10-06T01:04:47.675Z,10.30
2018-10-06T01:07:16.509Z,10.30
2018-10-06T01:09:45.322Z,10.40
2018-10-06T01:12:14.341Z,10.50
2018-10-06T01:14:43.119Z,10.60
2018-10-06T01:17:11.878Z,10.50
2018-10-06T01:19:40.819Z,10.50
2018-10-06T01:22:09.623Z,10.30
2018-10-06T01:24:38.414Z,10.30
2018-10-06T01:27:07.315Z,10.20
2018-10-06T01:29:36.147Z,10.20
2018-10-06T01:32:05.624Z,10.10
2018-10-06T01:34:34.759Z,10.00
2018-10-06T01:37:03.563Z,10.00
2018-10-06T01:39:32.644Z,9.90
2018-10-06T01:42:01.814Z,10.00
2018-10-06T01:44:30.850Z,10.40
2018-10-06T01:46:59.627Z,11.20
2018-10-06T01:49:28.389Z,11.80
2018-10-06T01:51:57.873Z,12.30
2018-10-06T01:54:26.698Z,12.60
2018-10-06T01:56:55.645Z,12.80
2018-10-06T01:59:25.667Z,13.00
2018-10-06T02:01:54.429Z,13.00
2018-10-06T02:04:24.822Z,13.00
2018-10-06T02:06:55.402Z,12.90
2018-10-06T02:09:24.722Z,13.00
2018-10-06T02:11:53.579Z,13.10
2018-10-06T02:14:22.461Z,13.10
2018-10-06T02:16:51.233Z,13.30
2018-10-06T02:19:19.996Z,13.20
2018-10-06T02:21:49.071Z,13.20
2018-10-06T02:24:17.942Z,13.10
2018-10-06T02:26:47.582Z,13.10
2018-10-06T02:29:16.408Z,13.10
2018-10-06T02:31:46.385Z,13.10
2018-10-06T02:34:16.390Z,13.10
2018-10-06T02:36:45.247Z,13.10
2018-10-06T02:39:13.998Z,13.10
2018-10-06T02:41:42.756Z,13.30
2018-10-06T02:44:11.567Z,13.40
2018-10-06T02:46:40.348Z,13.30
2018-10-06T02:49:09.174Z,13.20
2018-10-06T02:51:37.967Z,13.30
2018-10-06T02:54:06.837Z,13.20
2018-10-06T02:56:35.636Z,13.30
2018-10-06T02:59:04.438Z,13.30
2018-10-06T03:01:33.198Z,13.30
2018-10-06T03:04:01.976Z,13.40
2018-10-06T03:06:30.755Z,13.40
2018-10-06T03:08:59.543Z,13.30
2018-10-06T03:11:29.125Z,13.30
2018-10-06T03:13:58.123Z,13.30
2018-10-06T03:16:27.172Z,13.20
2018-10-06T03:18:55.961Z,13.20
2018-10-06T03:21:24.790Z,13.20
2018-10-06T03:23:53.613Z,13.10
2018-10-06T03:26:23.109Z,13.20
2018-10-06T03:28:51.893Z,13.20
2018-10-06T03:31:20.687Z,13.20
2018-10-06T03:33:49.927Z,13.30
2018-10-06T03:36:18.691Z,13.30
2018-10-06T03:38:48.335Z,13.30
2018-10-06T03:41:17.410Z,13.30
2018-10-06T03:43:46.207Z,13.30
2018-10-06T03:46:15.005Z,13.20
2018-10-06T03:48:43.830Z,13.30
2018-10-06T03:51:13.233Z,13.30
2018-10-06T03:53:42.155Z,13.30
2018-10-06T03:56:10.984Z,13.20
2018-10-06T03:58:39.874Z,13.20
2018-10-06T04:01:08.775Z,13.20
2018-10-06T04:03:37.576Z,13.20
2018-10-06T04:06:06.359Z,13.20
2018-10-06T04:08:35.159Z,13.10
2018-10-06T04:11:03.956Z,13.10
2018-10-06T04:13:34.034Z,13.10
2018-10-06T04:16:02.802Z,13.10
2018-10-06T04:18:32.431Z,13.10
2018-10-06T04:21:07.180Z,13.10
2018-10-06T04:23:36.796Z,13.10
2018-10-06T04:26:05.589Z,13.10
2018-10-06T04:28:34.747Z,13.10
2018-10-06T04:31:03.526Z,13.10
2018-10-06T04:33:32.400Z,13.00
2018-10-06T04:36:01.169Z,13.00
2018-10-06T04:38:30.176Z,13.10
2018-10-06T04:40:58.941Z,13.10
2018-10-06T04:43:27.725Z,13.00
2018-10-06T04:45:58.756Z,13.00
2018-10-06T04:48:27.574Z,12.90
2018-10-06T04:50:56.401Z,13.00
2018-10-06T04:53:25.207Z,13.00
2018-10-06T04:55:54.269Z,13.00
2018-10-06T04:58:23.041Z,13.00
2018-10-06T05:00:52.066Z,13.00
2018-10-06T05:03:21.460Z,12.90
2018-10-06T05:05:50.933Z,13.00
2018-10-06T05:08:19.718Z,12.90
2018-10-06T05:10:48.508Z,12.90
2018-10-06T05:13:17.297Z,12.80
2018-10-06T05:15:46.160Z,12.80
2018-10-06T05:18:15.147Z,12.80
2018-10-06T05:20:44.893Z,12.80
2018-10-06T05:23:13.741Z,12.70
2018-10-06T05:25:42.508Z,12.70
2018-10-06T05:28:12.310Z,12.70
2018-10-06T05:30:42.881Z,12.80
2018-10-06T05:33:11.669Z,12.70
2018-10-06T05:35:40.738Z,12.70
2018-10-06T05:38:10.182Z,12.70
2018-10-06T05:40:39.018Z,12.60
2018-10-06T05:43:07.907Z,12.60
2018-10-06T05:45:37.688Z,12.60
2018-10-06T05:48:13.283Z,12.60
2018-10-06T05:50:42.115Z,12.50
2018-10-06T05:53:10.931Z,12.60
2018-10-06T05:55:42.019Z,12.60
2018-10-06T05:58:10.910Z,12.60
2018-10-06T06:00:40.660Z,12.70
2018-10-06T06:03:09.485Z,12.60
2018-10-06T06:05:38.300Z,12.70
2018-10-06T06:08:07.465Z,12.80
2018-10-06T06:10:36.306Z,12.70
2018-10-06T06:13:05.519Z,12.70
2018-10-06T06:15:34.725Z,12.70
2018-10-06T06:18:03.478Z,12.70
2018-10-06T06:20:32.235Z,12.70
2018-10-06T06:23:01.344Z,12.70
2018-10-06T06:25:30.161Z,12.80
2018-10-06T06:27:59.003Z,12.80
2018-10-06T06:30:27.898Z,12.90
2018-10-06T06:32:56.718Z,13.00
2018-10-06T06:35:25.531Z,13.10
2018-10-06T06:37:54.495Z,13.20
2018-10-06T06:40:23.397Z,13.10
2018-10-06T06:42:52.227Z,13.10
2018-10-06T06:45:22.673Z,13.10
2018-10-06T06:47:52.513Z,13.10
2018-10-06T06:50:22.397Z,13.20
2018-10-06T06:52:51.953Z,13.20
2018-10-06T06:55:20.809Z,13.30
2018-10-06T06:57:50.439Z,13.30
2018-10-06T07:00:20.284Z,13.40
2018-10-06T07:02:49.179Z,13.40
2018-10-06T07:05:23.275Z,13.50
2018-10-06T07:07:53.101Z,13.50
2018-10-06T07:10:22.027Z,13.50
2018-10-06T07:12:51.159Z,13.50
2018-10-06T07:15:20.193Z,13.60
2018-10-06T07:17:49.501Z,13.70
2018-10-06T07:20:18.348Z,13.70
2018-10-06T07:22:47.183Z,13.90
2018-10-06T07:25:16.481Z,13.90
2018-10-06T07:27:47.752Z,14.00
2018-10-06T07:30:17.353Z,14.10
2018-10-06T07:32:46.920Z,14.20
2018-10-06T07:35:15.744Z,14.40
2018-10-06T07:37:44.671Z,14.50
2018-10-06T07:40:13.667Z,14.50
2018-10-06T07:42:43.455Z,14.70
2018-10-06T07:45:12.726Z,14.80
2018-10-06T07:47:41.736Z,14.80
2018-10-06T07:50:10.614Z,14.90
2018-10-06T07:52:39.566Z,15.10
2018-10-06T07:55:08.451Z,15.20
2018-10-06T07:57:38.618Z,15.30
2018-10-06T08:00:07.921Z,15.50
2018-10-06T08:02:36.802Z,15.50
2018-10-06T08:05:06.003Z,15.70
2018-10-06T08:07:34.811Z,15.90
2018-10-06T08:10:03.692Z,16.00
2018-10-06T08:12:33.642Z,16.10
2018-10-06T08:15:03.027Z,16.10
2018-10-06T08:17:31.891Z,16.30
2018-10-06T08:20:01.304Z,16.30
2018-10-06T08:22:30.209Z,16.30
2018-10-06T08:24:59.131Z,16.50
2018-10-06T08:27:28.886Z,16.90
2018-10-06T08:29:58.811Z,17.00
2018-10-06T08:32:28.055Z,17.20
2018-10-06T08:34:57.650Z,17.40
2018-10-06T08:37:27.576Z,17.50
2018-10-06T08:39:56.501Z,17.70
2018-10-06T08:42:26.959Z,18.00
2018-10-06T08:44:55.803Z,18.40
2018-10-06T08:47:24.788Z,18.40
2018-10-06T08:49:54.001Z,18.60
2018-10-06T08:52:23.653Z,18.70
2018-10-06T08:54:52.584Z,18.80
2018-10-06T08:57:21.391Z,18.30
2018-10-06T08:59:53.054Z,18.30
2018-10-06T09:02:22.183Z,18.30
2018-10-06T09:04:51.990Z,18.10
2018-10-06T09:07:21.281Z,18.20
2018-10-06T09:09:51.208Z,18.40
2018-10-06T09:12:20.746Z,18.40
2018-10-06T09:14:50.719Z,18.50
2018-10-06T09:17:20.130Z,18.60
2018-10-06T09:19:49.886Z,18.50
2018-10-06T09:22:19.952Z,18.80
2018-10-06T09:24:49.134Z,19.10
2018-10-06T09:27:20.199Z,19.30
2018-10-06T09:29:50.063Z,19.60
2018-10-06T09:32:25.082Z,19.80
2018-10-06T09:34:54.558Z,20.10
2018-10-06T09:37:27.736Z,20.30
2018-10-06T09:40:00.625Z,20.20
2018-10-06T09:42:32.223Z,20.30
2018-10-06T09:45:01.208Z,20.20
2018-10-06T09:47:30.994Z,20.10
2018-10-06T09:49:59.916Z,19.60
2018-10-06T09:52:29.043Z,19.50
2018-10-06T09:54:57.924Z,19.80
2018-10-06T09:57:27.692Z,19.90
2018-10-06T09:59:57.058Z,20.10
2018-10-06T10:02:32.782Z,20.10
2018-10-06T10:05:07.350Z,20.10
2018-10-06T10:07:37.616Z,20.10
2018-10-06T10:10:08.052Z,20.40
2018-10-06T10:12:37.367Z,20.90
2018-10-06T10:15:18.178Z,21.30
2018-10-06T10:17:47.420Z,21.30
2018-10-06T10:20:18.573Z,21.00
2018-10-06T10:22:47.883Z,21.20
2018-10-06T10:25:18.556Z,21.50
2018-10-06T10:27:48.371Z,21.50
2018-10-06T10:30:20.047Z,21.30
2018-10-06T10:32:50.188Z,21.30
2018-10-06T10:35:19.181Z,21.50
2018-10-06T10:37:48.841Z,21.50
2018-10-06T10:40:20.295Z,21.60
2018-10-06T10:42:49.247Z,21.70
2018-10-06T10:45:18.046Z,22.20
2018-10-06T10:47:47.610Z,22.40
2018-10-06T10:50:17.188Z,22.60
2018-10-06T10:52:46.623Z,22.80
2018-10-06T10:55:17.699Z,22.80
2018-10-06T10:57:48.195Z,23.00
2018-10-06T11:00:18.399Z,22.80
2018-10-06T11:02:47.994Z,22.90
2018-10-06T11:05:20.121Z,23.10
2018-10-06T11:07:49.766Z,23.30
2018-10-06T11:10:19.779Z,23.60
2018-10-06T11:12:49.710Z,23.70
2018-10-06T11:15:19.556Z,23.90
2018-10-06T11:17:48.688Z,23.90
2018-10-06T11:20:18.846Z,23.70
2018-10-06T11:22:50.055Z,23.70
2018-10-06T11:25:19.237Z,23.90
2018-10-06T11:27:48.086Z,24.20
2018-10-06T11:30:18.767Z,24.50
2018-10-06T11:32:48.532Z,24.90
2018-10-06T11:35:18.606Z,25.20
2018-10-06T11:37:48.271Z,25.20
2018-10-06T11:40:17.563Z,25.50
2018-10-06T11:42:47.685Z,25.70
2018-10-06T11:45:18.415Z,25.60
2018-10-06T11:47:47.690Z,25.50
2018-10-06T11:50:17.624Z,25.60
2018-10-06T11:52:49.253Z,25.20
2018-10-06T11:55:18.259Z,24.80
2018-10-06T11:57:47.404Z,24.90
2018-10-06T12:00:16.695Z,24.70
2018-10-06T12:02:46.774Z,25.00
2018-10-06T12:05:16.352Z,25.40
2018-10-06T12:07:45.774Z,26.00
2018-10-06T12:10:14.651Z,26.20
2018-10-06T12:12:45.134Z,26.00
2018-10-06T12:15:14.982Z,26.00
2018-10-06T12:17:44.332Z,26.30
2018-10-06T12:20:13.211Z,26.90
2018-10-06T12:22:42.129Z,27.00
2018-10-06T12:25:12.197Z,26.60
2018-10-06T12:27:41.316Z,26.90
2018-10-06T12:30:10.173Z,26.30
2018-10-06T12:32:49.023Z,26.40
2018-10-06T12:35:17.929Z,26.50
2018-10-06T12:37:46.931Z,26.50
2018-10-06T12:40:21.703Z,26.50
2018-10-06T12:42:51.331Z,26.30
2018-10-06T12:45:20.175Z,25.70
2018-10-06T12:47:49.159Z,25.50
2018-10-06T12:50:18.704Z,25.20
2018-10-06T12:52:49.617Z,25.20
2018-10-06T12:55:19.447Z,25.50
2018-10-06T12:57:51.083Z,25.30
2018-10-06T13:00:21.205Z,25.20
2018-10-06T13:02:50.708Z,25.00
2018-10-06T13:05:20.722Z,25.40
2018-10-06T13:07:55.819Z,25.30
2018-10-06T13:10:25.178Z,25.20
2018-10-06T13:12:54.804Z,25.10
2018-10-06T13:15:24.836Z,25.10
2018-10-06T13:17:54.346Z,25.20
2018-10-06T13:20:23.191Z,25.30
2018-10-06T13:22:55.202Z,25.50
2018-10-06T13:25:24.827Z,25.50
2018-10-06T13:27:54.378Z,25.50
2018-10-06T13:30:25.135Z,25.90
2018-10-06T13:32:55.306Z,26.30
2018-10-06T13:35:24.546Z,26.20
2018-10-06T13:37:54.552Z,26.00
2018-10-06T13:40:23.831Z,26.20
2018-10-06T13:42:55.718Z,25.70
2018-10-06T13:45:25.187Z,25.90
2018-10-06T13:47:55.180Z,26.20
2018-10-06T13:50:24.168Z,26.30
2018-10-06T13:52:56.315Z,26.50
2018-10-06T13:55:29.234Z,26.60
2018-10-06T13:58:03.527Z,26.90
2018-10-06T14:00:33.281Z,26.50
2018-10-06T14:03:03.161Z,26.10
2018-10-06T14:05:32.203Z,25.90
2018-10-06T14:08:01.230Z,25.60
2018-10-06T14:10:30.164Z,25.50
2018-10-06T14:13:01.689Z,25.20
2018-10-06T14:15:31.269Z,24.80
2018-10-06T14:18:01.691Z,24.50
2018-10-06T14:20:30.607Z,24.40
2018-10-06T14:22:59.696Z,24.30
2018-10-06T14:25:28.615Z,24.20
2018-10-06T14:27:59.340Z,24.00
2018-10-06T14:30:28.782Z,23.90
2018-10-06T14:32:57.652Z,23.70
2018-10-06T14:35:26.503Z,23.50
2018-10-06T14:37:56.248Z,23.10
2018-10-06T14:40:26.679Z,22.70
2018-10-06T14:42:55.796Z,22.40
2018-10-06T14:45:29.038Z,22.20
2018-10-06T14:47:58.880Z,22.10
2018-10-06T14:50:27.952Z,21.90
2018-10-06T14:52:58.669Z,22.00
2018-10-06T14:55:28.406Z,21.90
2018-10-06T14:57:58.492Z,21.90
2018-10-06T15:00:27.591Z,21.80
2018-10-06T15:02:56.707Z,21.70
2018-10-06T15:05:27.379Z,21.60
2018-10-06T15:07:56.632Z,21.50
2018-10-06T15:10:26.006Z,21.50
2018-10-06T15:12:55.160Z,21.30
2018-10-06T15:15:25.223Z,21.30
2018-10-06T15:17:54.167Z,21.30
2018-10-06T15:20:24.598Z,21.30
2018-10-06T15:22:54.526Z,21.30
2018-10-06T15:25:23.746Z,21.20
2018-10-06T15:27:59.524Z,21.20
2018-10-06T15:30:29.299Z,21.20
2018-10-06T15:32:58.603Z,21.10
2018-10-06T15:35:29.336Z,21.10
2018-10-06T15:37:58.247Z,21.10
2018-10-06T15:40:27.051Z,21.00
2018-10-06T15:42:55.934Z,21.00
2018-10-06T15:45:25.132Z,20.90
2018-10-06T15:47:57.080Z,20.80
2018-10-06T15:50:27.194Z,20.70
2018-10-06T15:52:57.514Z,20.60
2018-10-06T15:55:26.964Z,20.60
2018-10-06T15:57:56.383Z,20.50
2018-10-06T16:00:26.643Z,20.40
2018-10-06T16:02:56.280Z,20.40
2018-10-06T16:05:26.266Z,20.30
2018-10-06T16:07:56.846Z,20.10
2018-10-06T16:10:26.548Z,20.10
2018-10-06T16:12:55.572Z,20.00
2018-10-06T16:15:25.154Z,20.00
2018-10-06T16:17:56.429Z,19.90
2018-10-06T16:20:27.197Z,19.90
2018-10-06T16:22:57.372Z,19.80
2018-10-06T16:25:26.573Z,19.70
2018-10-06T16:27:57.116Z,19.60
2018-10-06T16:30:29.386Z,19.50
2018-10-06T16:33:01.274Z,19.50
2018-10-06T16:35:31.682Z,19.30
2018-10-06T16:38:00.495Z,19.30
2018-10-06T16:40:32.543Z,19.30
2018-10-06T16:43:02.158Z,19.20
2018-10-06T16:45:34.418Z,19.10
2018-10-06T16:48:03.524Z,19.00
2018-10-06T16:50:34.151Z,19.00
2018-10-06T16:53:05.331Z,19.00
2018-10-06T16:55:35.214Z,19.00
2018-10-06T16:58:13.395Z,18.90
2018-10-06T17:00:43.574Z,18.80
2018-10-06T17:03:13.153Z,18.80
2018-10-06T17:05:43.331Z,18.80
2018-10-06T17:08:12.478Z,18.80
2018-10-06T17:10:41.474Z,18.60
2018-10-06T17:13:10.849Z,18.50
2018-10-06T17:15:40.689Z,18.40
2018-10-06T17:18:11.979Z,18.40
2018-10-06T17:20:41.590Z,18.40
2018-10-06T17:23:11.682Z,18.50
2018-10-06T17:25:45.193Z,18.50
2018-10-06T17:28:16.223Z,18.50
2018-10-06T17:30:46.266Z,18.40
2018-10-06T17:33:17.436Z,18.30
2018-10-06T17:35:46.616Z,18.30
2018-10-06T17:38:17.314Z,18.20
2018-10-06T17:40:47.170Z,18.20
2018-10-06T17:43:17.335Z,18.10
2018-10-06T17:45:46.906Z,18.00
2018-10-06T17:48:17.268Z,18.10
2018-10-06T17:50:49.084Z,18.10
2018-10-06T17:53:18.044Z,18.00
2018-10-06T17:55:51.046Z,18.10
2018-10-06T17:58:22.372Z,18.10
2018-10-06T18:00:53.144Z,18.20
2018-10-06T18:03:23.176Z,18.30
2018-10-06T18:05:54.513Z,18.30
2018-10-06T18:08:24.304Z,18.20
2018-10-06T18:10:54.619Z,18.30
2018-10-06T18:13:24.462Z,18.30
2018-10-06T18:15:54.579Z,18.30
2018-10-06T18:18:29.381Z,18.30
2018-10-06T18:21:01.769Z,18.30
2018-10-06T18:23:33.772Z,18.30
2018-10-06T18:26:03.852Z,18.40
2018-10-06T18:28:33.412Z,18.40
2018-10-06T18:31:04.036Z,18.30
2018-10-06T18:33:33.387Z,18.30
2018-10-06T18:36:03.736Z,18.30
2018-10-06T18:38:35.185Z,18.20
2018-10-06T18:41:04.654Z,18.30
2018-10-06T18:43:34.252Z,18.30
2018-10-06T18:46:04.229Z,18.40
2018-10-06T18:48:34.612Z,18.30
2018-10-06T18:51:04.629Z,18.30
2018-10-06T18:53:35.203Z,18.30
2018-10-06T18:56:11.798Z,18.20
2018-10-06T18:58:41.689Z,18.20
2018-10-06T19:01:18.960Z,18.20
2018-10-06T19:03:51.102Z,18.10
2018-10-06T19:06:21.851Z,18.20
2018-10-06T19:08:54.187Z,18.20
2018-10-06T19:11:23.844Z,18.10
2018-10-06T19:13:54.148Z,18.20
2018-10-06T19:16:27.758Z,18.10
2018-10-06T19:18:57.701Z,18.20
2018-10-06T19:21:27.640Z,18.10
2018-10-06T19:24:05.120Z,18.20
2018-10-06T19:26:37.445Z,18.10
2018-10-06T19:29:08.181Z,18.20
2018-10-06T19:31:37.474Z,18.00
2018-10-06T19:34:09.076Z,18.00
2018-10-06T19:36:42.257Z,18.20
2018-10-06T19:39:12.288Z,18.20
2018-10-06T19:41:48.391Z,18.20
2018-10-06T19:44:18.537Z,18.10
2018-10-06T19:46:47.696Z,18.10
2018-10-06T19:49:25.105Z,18.10
2018-10-06T19:51:55.997Z,18.10
2018-10-06T19:54:25.555Z,18.00
2018-10-06T19:57:00.575Z,18.00
2018-10-06T19:59:33.111Z,18.00
2018-10-06T20:02:04.188Z,18.00
2018-10-06T20:04:41.171Z,17.90
2018-10-06T20:07:12.720Z,17.90
2018-10-06T20:09:44.954Z,17.90
2018-10-06T20:12:17.391Z,17.90
2018-10-06T20:14:47.178Z,17.90
2018-10-06T20:17:17.494Z,17.90
2018-10-06T20:19:46.640Z,17.80
2018-10-06T20:22:16.682Z,17.80
2018-10-06T20:24:46.782Z,17.80
2018-10-06T20:27:17.197Z,17.80
2018-10-06T20:29:53.535Z,17.80
2018-10-06T20:32:26.397Z,17.80
2018-10-06T20:34:56.667Z,17.80
2018-10-06T20:37:26.764Z,17.80
2018-10-06T20:39:57.766Z,17.80
2018-10-06T20:42:27.589Z,17.70
2018-10-06T20:44:59.154Z,17.50
2018-10-06T20:47:28.253Z,17.50
2018-10-06T20:49:58.668Z,17.50
2018-10-06T20:52:28.016Z,17.50
2018-10-06T20:55:01.714Z,17.50
2018-10-06T20:57:32.389Z,17.50
2018-10-06T21:00:03.762Z,17.50
2018-10-06T21:02:33.358Z,17.40
2018-10-06T21:05:06.240Z,17.40
2018-10-06T21:07:36.378Z,17.30
2018-10-06T21:10:06.283Z,17.40
2018-10-06T21:12:35.474Z,17.30
2018-10-06T21:15:05.155Z,17.40
2018-10-06T21:17:38.686Z,17.40
2018-10-06T21:20:07.691Z,17.30
2018-10-06T21:22:36.787Z,17.20
2018-10-06T21:25:07.095Z,17.20
2018-10-06T21:27:37.445Z,17.20
2018-10-06T21:30:08.662Z,17.20
2018-10-06T21:32:38.610Z,17.20
2018-10-06T21:35:08.619Z,17.20
2018-10-06T21:37:38.624Z,17.20
2018-10-06T21:40:08.664Z,17.20
2018-10-06T21:42:37.690Z,17.20
2018-10-06T21:45:09.246Z,17.20
2018-10-06T21:47:38.074Z,17.10
2018-10-06T21:50:07.666Z,17.10
2018-10-06T21:52:37.936Z,17.00
2018-10-06T21:55:08.418Z,17.00
2018-10-06T21:57:37.653Z,17.00
2018-10-06T22:00:08.685Z,17.00
2018-10-06T22:02:37.713Z,17.00
2018-10-06T22:05:10.179Z,17.00
2018-10-06T22:07:41.119Z,16.90
2018-10-06T22:10:11.473Z,17.00
2018-10-06T22:12:43.622Z,16.90
2018-10-06T22:15:13.325Z,16.80
2018-10-06T22:17:42.204Z,16.80
2018-10-06T22:20:11.310Z,16.80
2018-10-06T22:22:41.124Z,16.90
2018-10-06T22:25:11.581Z,16.80
2018-10-06T22:27:40.700Z,16.80
2018-10-06T22:30:10.837Z,16.80
2018-10-06T22:32:40.151Z,16.80
2018-10-06T22:35:09.230Z,16.80
2018-10-06T22:37:38.443Z,16.80
2018-10-06T22:40:09.060Z,16.70
2018-10-06T22:42:42.310Z,16.70
2018-10-06T22:45:14.851Z,16.70
2018-10-06T22:47:44.069Z,16.70
2018-10-06T22:50:14.624Z,16.70
2018-10-06T22:52:48.918Z,16.60
2018-10-06T22:55:18.209Z,16.60
2018-10-06T22:57:48.167Z,16.60
2018-10-06T23:00:17.170Z,16.60
2018-10-06T23:02:46.971Z,16.60
2018-10-06T23:05:18.716Z,16.60
2018-10-06T23:07:47.815Z,16.60
2018-10-06T23:10:16.756Z,16.50
2018-10-06T23:12:45.910Z,16.60
2018-10-06T23:15:16.655Z,16.50
2018-10-06T23:17:47.173Z,16.40
2018-10-06T23:20:16.322Z,16.30
2018-10-06T23:22:45.221Z,16.30
2018-10-06T23:25:17.234Z,16.30
2018-10-06T23:27:46.437Z,16.30
2018-10-06T23:30:15.393Z,16.30
2018-10-06T23:32:44.315Z,16.20
2018-10-06T23:35:14.637Z,16.20
2018-10-06T23:37:43.701Z,16.20
2018-10-06T23:40:12.572Z,16.20
2018-10-06T23:42:41.654Z,16.20
2018-10-06T23:45:10.655Z,16.10
2018-10-06T23:47:41.043Z,16.00
2018-10-06T23:50:10.620Z,16.00
2018-10-06T23:52:40.556Z,16.00
2018-10-06T23:55:10.273Z,16.00
2018-10-06T23:57:39.409Z,16.00
